createdAt,value
2016-12-31T00:00:06.155Z,1030.04
2016-12-31T00:01:17.548Z,1030.01
2016-12-31T00:02:29.001Z,1030.01
2016-12-31T00:03:40.401Z,1029.98
2016-12-31T00:04:51.802Z,1030
2016-12-31T00:06:03.202Z,1030.01
2016-12-31T00:07:14.595Z,1030.01
2016-12-31T00:08:26.049Z,1030.01
2016-12-31T00:09:37.451Z,1030.02
2016-12-31T00:10:48.852Z,1030
2016-12-31T00:12:00.248Z,1029.98
2016-12-31T00:13:11.651Z,1030.02
2016-12-31T00:14:23.093Z,1029.95
2016-12-31T00:15:34.496Z,1029.98
2016-12-31T00:16:45.921Z,1029.95
2016-12-31T00:17:57.320Z,1029.95
2016-12-31T00:19:08.724Z,1029.93
2016-12-31T00:20:20.373Z,1029.95
2016-12-31T00:21:31.774Z,1029.94
2016-12-31T00:22:43.177Z,1029.96
2016-12-31T00:23:54.578Z,1029.94
2016-12-31T00:25:05.970Z,1029.96
2016-12-31T00:26:17.422Z,1029.92
2016-12-31T00:27:28.818Z,1029.91
2016-12-31T00:28:40.416Z,1029.92
2016-12-31T00:29:51.812Z,1029.89
2016-12-31T00:31:03.209Z,1029.88
2016-12-31T00:32:14.662Z,1029.88
2016-12-31T00:33:26.067Z,1029.85
2016-12-31T00:34:37.468Z,1029.82
2016-12-31T00:35:48.876Z,1029.77
2016-12-31T00:37:00.283Z,1029.81
2016-12-31T00:38:11.737Z,1029.82
2016-12-31T00:39:23.332Z,1029.86
2016-12-31T00:40:34.735Z,1029.81
2016-12-31T00:41:46.129Z,1029.83
2016-12-31T00:42:57.534Z,1029.84
2016-12-31T00:44:09.080Z,1029.82
2016-12-31T00:45:20.475Z,1029.87
2016-12-31T00:46:31.870Z,1029.9
2016-12-31T00:47:43.270Z,1029.89
2016-12-31T00:48:54.669Z,1029.91
2016-12-31T00:50:06.101Z,1029.95
2016-12-31T00:51:17.493Z,1029.88
2016-12-31T00:52:28.899Z,1029.9
2016-12-31T00:53:40.303Z,1029.89
2016-12-31T00:54:51.704Z,1029.89
2016-12-31T00:56:03.256Z,1029.88
2016-12-31T00:57:14.656Z,1029.86
2016-12-31T00:58:26.064Z,1029.85
2016-12-31T00:59:37.461Z,1029.84
2016-12-31T01:00:48.859Z,1029.81
2016-12-31T01:02:00.707Z,1029.85
2016-12-31T01:03:12.104Z,1029.85
2016-12-31T01:04:23.501Z,1029.84
2016-12-31T01:05:34.908Z,1029.82
2016-12-31T01:06:46.304Z,1029.83
2016-12-31T01:07:57.784Z,1029.88
2016-12-31T01:09:09.383Z,1029.86
2016-12-31T01:10:20.778Z,1029.89
2016-12-31T01:11:32.378Z,1029.92
2016-12-31T01:12:43.785Z,1029.93
2016-12-31T01:13:55.485Z,1029.98
2016-12-31T01:15:06.887Z,1029.94
2016-12-31T01:16:18.289Z,1029.92
2016-12-31T01:17:29.886Z,1029.92
2016-12-31T01:18:41.273Z,1029.93
2016-12-31T01:19:52.775Z,1029.96
2016-12-31T01:21:04.173Z,1029.93
2016-12-31T01:22:15.764Z,1029.97
2016-12-31T01:23:27.358Z,1029.95
2016-12-31T01:24:38.750Z,1030
2016-12-31T01:25:50.396Z,1030.03
2016-12-31T01:27:01.795Z,1030.06
2016-12-31T01:28:13.200Z,1030.04
2016-12-31T01:29:24.804Z,1030.05
2016-12-31T01:30:36.199Z,1030
2016-12-31T01:31:47.648Z,1029.99
2016-12-31T01:32:59.092Z,1030
2016-12-31T01:34:10.490Z,1029.96
2016-12-31T01:35:21.892Z,1029.91
2016-12-31T01:36:33.291Z,1029.93
2016-12-31T01:37:44.733Z,1029.93
2016-12-31T01:38:56.334Z,1029.93
2016-12-31T01:40:07.731Z,1029.91
2016-12-31T01:41:19.136Z,1029.9
2016-12-31T01:42:30.532Z,1029.9
2016-12-31T01:43:42.180Z,1029.91
2016-12-31T01:44:53.580Z,1029.91
2016-12-31T01:46:04.977Z,1029.89
2016-12-31T01:47:16.379Z,1029.87
2016-12-31T01:48:27.825Z,1029.91
2016-12-31T01:49:39.423Z,1029.9
2016-12-31T01:50:50.821Z,1029.93
2016-12-31T01:52:02.215Z,1029.9
2016-12-31T01:53:13.607Z,1029.92
2016-12-31T01:54:25.056Z,1029.91
2016-12-31T01:55:36.458Z,1029.84
2016-12-31T01:56:48.058Z,1029.87
2016-12-31T01:57:59.473Z,1029.8
2016-12-31T01:59:10.872Z,1029.81
2016-12-31T02:00:22.516Z,1029.85
2016-12-31T02:01:33.911Z,1029.85
2016-12-31T02:02:45.310Z,1029.8
2016-12-31T02:03:56.700Z,1029.8
2016-12-31T02:05:08.099Z,1029.75
2016-12-31T02:06:19.549Z,1029.72
2016-12-31T02:07:30.957Z,1029.69
2016-12-31T02:08:42.361Z,1029.68
2016-12-31T02:09:53.988Z,1029.62
2016-12-31T02:11:05.390Z,1029.64
2016-12-31T02:12:16.841Z,1029.59
2016-12-31T02:13:28.439Z,1029.57
2016-12-31T02:14:39.834Z,1029.59
2016-12-31T02:15:51.225Z,1029.63
2016-12-31T02:17:02.623Z,1029.65
2016-12-31T02:18:14.064Z,1029.64
2016-12-31T02:19:25.464Z,1029.61
2016-12-31T02:20:36.857Z,1029.59
2016-12-31T02:21:48.252Z,1029.61
2016-12-31T02:22:59.856Z,1029.56
2016-12-31T02:24:11.504Z,1029.58
2016-12-31T02:25:23.107Z,1029.59
2016-12-31T02:26:34.712Z,1029.52
2016-12-31T02:27:46.319Z,1029.52
2016-12-31T02:28:57.714Z,1029.47
2016-12-31T02:30:09.362Z,1029.51
2016-12-31T02:31:20.756Z,1029.48
2016-12-31T02:32:32.351Z,1029.49
2016-12-31T02:33:43.953Z,1029.52
2016-12-31T02:34:55.344Z,1029.45
2016-12-31T02:36:06.788Z,1029.48
2016-12-31T02:37:18.185Z,1029.46
2016-12-31T02:38:29.615Z,1029.44
2016-12-31T02:39:41.005Z,1029.45
2016-12-31T02:40:52.411Z,1029.49
2016-12-31T02:42:03.863Z,1029.45
2016-12-31T02:43:15.259Z,1029.52
2016-12-31T02:44:26.658Z,1029.49
2016-12-31T02:45:38.264Z,1029.51
2016-12-31T02:46:49.666Z,1029.5
2016-12-31T02:48:01.113Z,1029.51
2016-12-31T02:49:12.514Z,1029.49
2016-12-31T02:50:23.915Z,1029.47
2016-12-31T02:51:35.326Z,1029.44
2016-12-31T02:52:46.727Z,1029.46
2016-12-31T02:53:58.166Z,1029.42
2016-12-31T02:55:09.563Z,1029.47
2016-12-31T02:56:20.964Z,1029.4
2016-12-31T02:57:32.364Z,1029.44
2016-12-31T02:58:43.771Z,1029.43
2016-12-31T02:59:55.223Z,1029.45
2016-12-31T03:01:06.628Z,1029.43
2016-12-31T03:02:18.030Z,1029.4
2016-12-31T03:03:29.425Z,1029.43
2016-12-31T03:04:40.823Z,1029.46
2016-12-31T03:05:52.267Z,1029.42
2016-12-31T03:07:03.671Z,1029.45
2016-12-31T03:08:15.068Z,1029.38
2016-12-31T03:09:26.467Z,1029.39
2016-12-31T03:10:38.099Z,1029.39
2016-12-31T03:11:49.552Z,1029.35
2016-12-31T03:13:00.947Z,1029.31
2016-12-31T03:14:12.339Z,1029.3
2016-12-31T03:15:23.728Z,1029.27
2016-12-31T03:16:35.136Z,1029.27
2016-12-31T03:17:46.789Z,1029.24
2016-12-31T03:18:58.183Z,1029.25
2016-12-31T03:20:09.576Z,1029.31
2016-12-31T03:21:20.970Z,1029.27
2016-12-31T03:22:32.375Z,1029.32
2016-12-31T03:23:43.826Z,1029.28
2016-12-31T03:24:55.224Z,1029.28
2016-12-31T03:26:06.625Z,1029.31
2016-12-31T03:27:18.029Z,1029.3
2016-12-31T03:28:29.428Z,1029.31
2016-12-31T03:29:40.880Z,1029.24
2016-12-31T03:30:52.294Z,1029.23
2016-12-31T03:32:03.697Z,1029.24
2016-12-31T03:33:15.103Z,1029.21
2016-12-31T03:34:26.509Z,1029.2
2016-12-31T03:35:38.166Z,1029.23
2016-12-31T03:36:49.569Z,1029.21
2016-12-31T03:38:00.964Z,1029.18
2016-12-31T03:39:12.566Z,1029.21
2016-12-31T03:40:24.158Z,1029.16
2016-12-31T03:41:35.604Z,1029.13
2016-12-31T03:42:47.018Z,1029.14
2016-12-31T03:43:58.415Z,1029.11
2016-12-31T03:45:09.824Z,1029.13
2016-12-31T03:46:21.222Z,1029.13
2016-12-31T03:47:32.870Z,1029.15
2016-12-31T03:48:44.271Z,1029.14
2016-12-31T03:49:55.670Z,1029.11
2016-12-31T03:51:07.072Z,1029.08
2016-12-31T03:52:18.474Z,1029.09
2016-12-31T03:53:30.123Z,1029.01
2016-12-31T03:54:41.526Z,1029.08
2016-12-31T03:55:52.927Z,1029.08
2016-12-31T03:57:04.322Z,1029.05
2016-12-31T03:58:15.731Z,1029.05
2016-12-31T03:59:27.188Z,1029.02
2016-12-31T04:00:38.584Z,1029.04
2016-12-31T04:01:49.979Z,1029.02
2016-12-31T04:03:01.368Z,1029.05
2016-12-31T04:04:12.773Z,1028.97
2016-12-31T04:05:24.213Z,1028.99
2016-12-31T04:06:35.611Z,1028.96
2016-12-31T04:07:47.008Z,1028.98
2016-12-31T04:08:58.415Z,1029
2016-12-31T04:10:09.827Z,1028.95
2016-12-31T04:11:21.271Z,1028.96
2016-12-31T04:12:32.667Z,1028.96
2016-12-31T04:13:44.092Z,1028.91
2016-12-31T04:14:55.492Z,1028.88
2016-12-31T04:16:06.888Z,1028.89
2016-12-31T04:17:18.324Z,1028.9
2016-12-31T04:18:29.935Z,1028.87
2016-12-31T04:19:41.338Z,1028.85
2016-12-31T04:20:52.731Z,1028.85
2016-12-31T04:22:04.125Z,1028.86
2016-12-31T04:23:15.776Z,1028.84
2016-12-31T04:24:27.173Z,1028.83
2016-12-31T04:25:38.569Z,1028.82
2016-12-31T04:26:49.968Z,1028.85
2016-12-31T04:28:01.397Z,1028.84
2016-12-31T04:29:12.849Z,1028.79
2016-12-31T04:30:24.246Z,1028.77
2016-12-31T04:31:35.643Z,1028.72
2016-12-31T04:32:47.037Z,1028.76
2016-12-31T04:33:58.448Z,1028.73
2016-12-31T04:35:09.895Z,1028.74
2016-12-31T04:36:21.287Z,1028.71
2016-12-31T04:37:32.685Z,1028.73
2016-12-31T04:38:44.111Z,1028.74
2016-12-31T04:39:55.706Z,1028.71
2016-12-31T04:41:07.399Z,1028.7
2016-12-31T04:42:18.801Z,1028.71
2016-12-31T04:43:30.208Z,1028.69
2016-12-31T04:44:41.807Z,1028.69
2016-12-31T04:45:53.206Z,1028.7
2016-12-31T04:47:04.661Z,1028.7
2016-12-31T04:48:16.075Z,1028.73
2016-12-31T04:49:27.492Z,1028.73
2016-12-31T04:50:38.892Z,1028.73
2016-12-31T04:51:50.291Z,1028.74
2016-12-31T04:53:01.734Z,1028.73
2016-12-31T04:54:13.133Z,1028.76
2016-12-31T04:55:24.536Z,1028.7
2016-12-31T04:56:35.938Z,1028.74
2016-12-31T04:57:47.337Z,1028.67
2016-12-31T04:58:58.795Z,1028.7
2016-12-31T05:00:10.201Z,1028.64
2016-12-31T05:01:21.602Z,1028.67
2016-12-31T05:02:32.998Z,1028.68
2016-12-31T05:03:44.392Z,1028.65
2016-12-31T05:04:55.842Z,1028.66
2016-12-31T05:06:07.251Z,1028.62
2016-12-31T05:07:18.658Z,1028.65
2016-12-31T05:08:30.060Z,1028.68
2016-12-31T05:09:41.457Z,1028.65
2016-12-31T05:10:52.931Z,1028.71
2016-12-31T05:12:04.332Z,1028.67
2016-12-31T05:13:15.742Z,1028.62
2016-12-31T05:14:27.141Z,1028.64
2016-12-31T05:15:38.539Z,1028.65
2016-12-31T05:16:49.985Z,1028.6
2016-12-31T05:18:01.584Z,1028.64
2016-12-31T05:19:12.991Z,1028.65
2016-12-31T05:20:24.404Z,1028.65
2016-12-31T05:21:35.801Z,1028.68
2016-12-31T05:22:47.249Z,1028.66
2016-12-31T05:23:58.645Z,1028.67
2016-12-31T05:25:10.246Z,1028.69
2016-12-31T05:26:21.644Z,1028.7
2016-12-31T05:27:33.247Z,1028.69
2016-12-31T05:28:44.697Z,1028.73
2016-12-31T05:29:56.102Z,1028.69
2016-12-31T05:31:07.500Z,1028.69
2016-12-31T05:32:18.897Z,1028.66
2016-12-31T05:33:30.501Z,1028.62
2016-12-31T05:34:41.962Z,1028.64
2016-12-31T05:35:53.365Z,1028.62
2016-12-31T05:37:04.963Z,1028.58
2016-12-31T05:38:16.565Z,1028.59
2016-12-31T05:39:28.172Z,1028.62
2016-12-31T05:40:39.626Z,1028.6
2016-12-31T05:41:51.230Z,1028.6
2016-12-31T05:43:02.627Z,1028.63
2016-12-31T05:44:14.040Z,1028.6
2016-12-31T05:45:25.442Z,1028.58
2016-12-31T05:46:36.899Z,1028.55
2016-12-31T05:47:48.502Z,1028.54
2016-12-31T05:48:59.895Z,1028.54
2016-12-31T05:50:11.292Z,1028.51
2016-12-31T05:51:22.690Z,1028.56
2016-12-31T05:52:34.142Z,1028.55
2016-12-31T05:53:45.541Z,1028.5
2016-12-31T05:54:56.943Z,1028.54
2016-12-31T05:56:08.542Z,1028.54
2016-12-31T05:57:19.935Z,1028.57
2016-12-31T05:58:31.384Z,1028.53
2016-12-31T05:59:42.994Z,1028.6
2016-12-31T06:00:54.392Z,1028.59
2016-12-31T06:02:05.993Z,1028.59
2016-12-31T06:03:17.394Z,1028.63
2016-12-31T06:04:28.840Z,1028.63
2016-12-31T06:05:40.242Z,1028.64
2016-12-31T06:06:51.635Z,1028.65
2016-12-31T06:08:03.039Z,1028.66
2016-12-31T06:09:14.430Z,1028.63
2016-12-31T06:10:25.871Z,1028.62
2016-12-31T06:11:37.268Z,1028.54
2016-12-31T06:12:48.669Z,1028.54
2016-12-31T06:14:00.067Z,1028.53
2016-12-31T06:15:11.465Z,1028.52
2016-12-31T06:16:22.907Z,1028.5
2016-12-31T06:17:34.301Z,1028.49
2016-12-31T06:18:45.699Z,1028.51
2016-12-31T06:19:57.097Z,1028.47
2016-12-31T06:21:08.494Z,1028.45
2016-12-31T06:22:19.937Z,1028.44
2016-12-31T06:23:31.332Z,1028.42
2016-12-31T06:24:42.739Z,1028.46
2016-12-31T06:25:54.137Z,1028.42
2016-12-31T06:27:05.537Z,1028.44
2016-12-31T06:28:17.189Z,1028.43
2016-12-31T06:29:28.582Z,1028.5
2016-12-31T06:30:39.977Z,1028.44
2016-12-31T06:31:51.375Z,1028.49
2016-12-31T06:33:02.767Z,1028.53
2016-12-31T06:34:14.414Z,1028.52
2016-12-31T06:35:25.826Z,1028.51
2016-12-31T06:36:37.217Z,1028.52
2016-12-31T06:37:48.819Z,1028.49
2016-12-31T06:39:00.222Z,1028.49
2016-12-31T06:40:11.870Z,1028.47
2016-12-31T06:41:23.469Z,1028.49
2016-12-31T06:42:34.860Z,1028.47
2016-12-31T06:43:46.458Z,1028.45
2016-12-31T06:44:57.859Z,1028.43
2016-12-31T06:46:09.316Z,1028.47
2016-12-31T06:47:20.722Z,1028.47
2016-12-31T06:48:32.114Z,1028.43
2016-12-31T06:49:43.513Z,1028.44
2016-12-31T06:50:54.914Z,1028.44
2016-12-31T06:52:06.364Z,1028.43
2016-12-31T06:53:17.963Z,1028.4
2016-12-31T06:54:29.358Z,1028.36
2016-12-31T06:55:40.753Z,1028.4
2016-12-31T06:56:52.156Z,1028.4
2016-12-31T06:58:03.799Z,1028.34
2016-12-31T06:59:15.397Z,1028.35
2016-12-31T07:00:26.994Z,1028.35
2016-12-31T07:01:38.388Z,1028.36
2016-12-31T07:02:49.784Z,1028.36
2016-12-31T07:04:01.229Z,1028.42
2016-12-31T07:05:12.626Z,1028.45
2016-12-31T07:06:24.025Z,1028.45
2016-12-31T07:07:35.427Z,1028.43
2016-12-31T07:08:47.033Z,1028.44
2016-12-31T07:09:58.482Z,1028.42
2016-12-31T07:11:09.876Z,1028.45
2016-12-31T07:12:21.476Z,1028.48
2016-12-31T07:13:32.877Z,1028.46
2016-12-31T07:14:44.281Z,1028.5
2016-12-31T07:15:55.725Z,1028.45
2016-12-31T07:17:07.146Z,1028.44
2016-12-31T07:18:18.551Z,1028.44
2016-12-31T07:19:29.953Z,1028.45
2016-12-31T07:20:41.383Z,1028.43
2016-12-31T07:21:52.832Z,1028.43
2016-12-31T07:23:04.233Z,1028.4
2016-12-31T07:24:15.628Z,1028.4
2016-12-31T07:25:27.033Z,1028.4
2016-12-31T07:26:38.428Z,1028.48
2016-12-31T07:27:50.083Z,1028.44
2016-12-31T07:29:01.489Z,1028.44
2016-12-31T07:30:12.892Z,1028.46
2016-12-31T07:31:24.293Z,1028.44
2016-12-31T07:32:35.697Z,1028.4
2016-12-31T07:33:47.143Z,1028.44
2016-12-31T07:34:58.540Z,1028.41
2016-12-31T07:36:10.339Z,1028.4
2016-12-31T07:37:21.744Z,1028.44
2016-12-31T07:38:33.139Z,1028.43
2016-12-31T07:39:44.596Z,1028.44
2016-12-31T07:40:55.988Z,1028.47
2016-12-31T07:42:07.383Z,1028.47
2016-12-31T07:43:18.778Z,1028.42
2016-12-31T07:44:30.175Z,1028.4
2016-12-31T07:45:41.827Z,1028.37
2016-12-31T07:46:53.231Z,1028.41
2016-12-31T07:48:04.628Z,1028.38
2016-12-31T07:49:16.041Z,1028.37
2016-12-31T07:50:27.440Z,1028.32
2016-12-31T07:51:38.886Z,1028.31
2016-12-31T07:52:50.489Z,1028.36
2016-12-31T07:54:01.890Z,1028.34
2016-12-31T07:55:13.289Z,1028.38
2016-12-31T07:56:24.893Z,1028.39
2016-12-31T07:57:36.344Z,1028.34
2016-12-31T07:58:47.938Z,1028.38
2016-12-31T07:59:59.335Z,1028.38
2016-12-31T08:01:10.735Z,1028.34
2016-12-31T08:02:22.366Z,1028.36
2016-12-31T08:03:33.871Z,1028.37
2016-12-31T08:04:45.272Z,1028.4
2016-12-31T08:05:56.672Z,1028.42
2016-12-31T08:07:08.269Z,1028.38
2016-12-31T08:08:19.668Z,1028.39
2016-12-31T08:09:31.112Z,1028.39
2016-12-31T08:10:42.712Z,1028.43
2016-12-31T08:11:54.103Z,1028.47
2016-12-31T08:13:05.492Z,1028.47
2016-12-31T08:14:17.092Z,1028.45
2016-12-31T08:15:28.744Z,1028.46
2016-12-31T08:16:40.143Z,1028.45
2016-12-31T08:17:51.547Z,1028.43
2016-12-31T08:19:02.941Z,1028.39
2016-12-31T08:20:14.542Z,1028.43
2016-12-31T08:21:25.984Z,1028.42
2016-12-31T08:22:37.381Z,1028.39
2016-12-31T08:23:48.981Z,1028.4
2016-12-31T08:25:00.581Z,1028.44
2016-12-31T08:26:11.976Z,1028.42
2016-12-31T08:27:23.424Z,1028.4
2016-12-31T08:28:34.829Z,1028.43
2016-12-31T08:29:46.230Z,1028.45
2016-12-31T08:30:57.633Z,1028.46
2016-12-31T08:32:09.025Z,1028.45
2016-12-31T08:33:20.471Z,1028.48
2016-12-31T08:34:31.865Z,1028.51
2016-12-31T08:35:43.264Z,1028.52
2016-12-31T08:36:55.061Z,1028.49
2016-12-31T08:38:06.463Z,1028.5
2016-12-31T08:39:17.917Z,1028.49
2016-12-31T08:40:29.320Z,1028.5
2016-12-31T08:41:40.716Z,1028.5
2016-12-31T08:42:52.127Z,1028.46
2016-12-31T08:44:03.520Z,1028.5
2016-12-31T08:45:14.966Z,1028.49
2016-12-31T08:46:26.562Z,1028.41
2016-12-31T08:47:38.169Z,1028.46
2016-12-31T08:48:49.572Z,1028.47
2016-12-31T08:50:00.967Z,1028.5
2016-12-31T08:51:12.421Z,1028.49
2016-12-31T08:52:24.019Z,1028.51
2016-12-31T08:53:35.415Z,1028.46
2016-12-31T08:54:46.815Z,1028.46
2016-12-31T08:55:58.207Z,1028.43
2016-12-31T08:57:09.653Z,1028.37
2016-12-31T08:58:21.058Z,1028.38
2016-12-31T08:59:32.458Z,1028.35
2016-12-31T09:00:43.852Z,1028.37
2016-12-31T09:01:55.256Z,1028.36
2016-12-31T09:03:06.706Z,1028.33
2016-12-31T09:04:18.096Z,1028.37
2016-12-31T09:05:29.496Z,1028.41
2016-12-31T09:06:40.901Z,1028.39
2016-12-31T09:07:52.293Z,1028.37
2016-12-31T09:09:03.944Z,1028.45
2016-12-31T09:10:15.540Z,1028.45
2016-12-31T09:11:26.945Z,1028.46
2016-12-31T09:12:38.347Z,1028.48
2016-12-31T09:13:49.955Z,1028.47
2016-12-31T09:15:01.431Z,1028.45
2016-12-31T09:16:13.029Z,1028.45
2016-12-31T09:17:24.423Z,1028.38
2016-12-31T09:18:35.828Z,1028.4
2016-12-31T09:19:47.427Z,1028.42
2016-12-31T09:20:59.080Z,1028.38
2016-12-31T09:22:10.485Z,1028.34
2016-12-31T09:23:22.081Z,1028.38
2016-12-31T09:24:33.477Z,1028.37
2016-12-31T09:25:44.869Z,1028.38
2016-12-31T09:26:56.317Z,1028.4
2016-12-31T09:28:07.721Z,1028.42
2016-12-31T09:29:19.121Z,1028.4
2016-12-31T09:30:30.524Z,1028.37
2016-12-31T09:31:41.924Z,1028.42
2016-12-31T09:32:53.373Z,1028.4
2016-12-31T09:34:04.773Z,1028.37
2016-12-31T09:35:16.175Z,1028.35
2016-12-31T09:36:27.775Z,1028.35
2016-12-31T09:37:39.180Z,1028.41
2016-12-31T09:38:50.615Z,1028.41
2016-12-31T09:40:02.020Z,1028.41
2016-12-31T09:41:13.424Z,1028.39
2016-12-31T09:42:24.822Z,1028.39
2016-12-31T09:43:36.225Z,1028.39
2016-12-31T09:44:47.675Z,1028.39
2016-12-31T09:45:59.077Z,1028.4
2016-12-31T09:47:10.480Z,1028.37
2016-12-31T09:48:21.885Z,1028.33
2016-12-31T09:49:33.483Z,1028.36
2016-12-31T09:50:44.951Z,1028.33
2016-12-31T09:51:56.344Z,1028.33
2016-12-31T09:53:07.745Z,1028.31
2016-12-31T09:54:19.145Z,1028.3
2016-12-31T09:55:30.549Z,1028.28
2016-12-31T09:56:41.998Z,1028.26
2016-12-31T09:57:53.394Z,1028.27
2016-12-31T09:59:04.790Z,1028.23
2016-12-31T10:00:16.196Z,1028.23
2016-12-31T10:01:27.789Z,1028.22
2016-12-31T10:02:39.439Z,1028.2
2016-12-31T10:03:50.844Z,1028.16
2016-12-31T10:05:02.243Z,1028.17
2016-12-31T10:06:13.647Z,1028.18
2016-12-31T10:07:25.056Z,1028.14
2016-12-31T10:08:36.510Z,1028.12
2016-12-31T10:09:47.901Z,1028.13
2016-12-31T10:10:59.310Z,1028.12
2016-12-31T10:12:10.913Z,1028.12
2016-12-31T10:13:22.316Z,1028.14
2016-12-31T10:14:33.767Z,1028.11
2016-12-31T10:15:45.168Z,1028.1
2016-12-31T10:16:56.600Z,1028.1
2016-12-31T10:18:07.999Z,1028.11
2016-12-31T10:19:19.402Z,1028.03
2016-12-31T10:20:30.803Z,1028.01
2016-12-31T10:21:42.204Z,1028.06
2016-12-31T10:22:53.604Z,1028.05
2016-12-31T10:24:04.996Z,1028.04
2016-12-31T10:25:16.441Z,1028
2016-12-31T10:26:27.831Z,1028.03
2016-12-31T10:27:39.231Z,1028.05
2016-12-31T10:28:50.627Z,1028
2016-12-31T10:30:02.046Z,1028.03
2016-12-31T10:31:13.504Z,1028
2016-12-31T10:32:24.909Z,1027.99
2016-12-31T10:33:36.509Z,1027.92
2016-12-31T10:34:47.915Z,1027.91
2016-12-31T10:35:59.714Z,1027.93
2016-12-31T10:37:11.164Z,1027.9
2016-12-31T10:38:22.569Z,1027.92
2016-12-31T10:39:33.971Z,1027.92
2016-12-31T10:40:45.567Z,1027.94
2016-12-31T10:41:56.972Z,1027.92
2016-12-31T10:43:08.417Z,1027.93
2016-12-31T10:44:19.816Z,1027.92
2016-12-31T10:45:31.417Z,1027.94
2016-12-31T10:46:42.822Z,1027.91
2016-12-31T10:47:54.220Z,1027.97
2016-12-31T10:49:05.667Z,1027.93
2016-12-31T10:50:17.065Z,1027.94
2016-12-31T10:51:28.469Z,1027.93
2016-12-31T10:52:40.076Z,1027.94
2016-12-31T10:53:51.479Z,1027.92
2016-12-31T10:55:03.132Z,1027.94
2016-12-31T10:56:14.531Z,1027.92
2016-12-31T10:57:25.941Z,1027.89
2016-12-31T10:58:37.351Z,1027.88
2016-12-31T10:59:48.955Z,1027.86
2016-12-31T11:01:00.629Z,1027.85
2016-12-31T11:02:12.030Z,1027.83
2016-12-31T11:03:23.440Z,1027.77
2016-12-31T11:04:34.847Z,1027.75
2016-12-31T11:05:46.250Z,1027.73
2016-12-31T11:06:57.700Z,1027.71
2016-12-31T11:08:09.096Z,1027.72
2016-12-31T11:09:20.490Z,1027.72
2016-12-31T11:10:32.131Z,1027.69
2016-12-31T11:11:43.535Z,1027.66
2016-12-31T11:12:55.184Z,1027.68
2016-12-31T11:14:06.583Z,1027.65
2016-12-31T11:15:17.993Z,1027.62
2016-12-31T11:16:29.385Z,1027.59
2016-12-31T11:17:40.810Z,1027.61
2016-12-31T11:18:52.259Z,1027.56
2016-12-31T11:20:03.661Z,1027.61
2016-12-31T11:21:15.059Z,1027.59
2016-12-31T11:22:26.464Z,1027.55
2016-12-31T11:23:38.074Z,1027.58
2016-12-31T11:24:49.530Z,1027.59
2016-12-31T11:26:00.926Z,1027.62
2016-12-31T11:27:12.333Z,1027.57
2016-12-31T11:28:23.732Z,1027.51
2016-12-31T11:29:35.136Z,1027.5
2016-12-31T11:30:46.816Z,1027.5
2016-12-31T11:31:58.227Z,1027.41
2016-12-31T11:33:09.629Z,1027.39
2016-12-31T11:34:21.024Z,1027.37
2016-12-31T11:35:32.826Z,1027.38
2016-12-31T11:36:44.276Z,1027.36
2016-12-31T11:37:55.683Z,1027.37
2016-12-31T11:39:07.078Z,1027.36
2016-12-31T11:40:18.481Z,1027.35
2016-12-31T11:41:29.877Z,1027.35
2016-12-31T11:42:41.324Z,1027.33
2016-12-31T11:43:52.730Z,1027.3
2016-12-31T11:45:04.123Z,1027.3
2016-12-31T11:46:15.525Z,1027.32
2016-12-31T11:47:26.920Z,1027.27
2016-12-31T11:48:38.563Z,1027.32
2016-12-31T11:49:49.966Z,1027.34
2016-12-31T11:51:01.363Z,1027.31
2016-12-31T11:52:12.771Z,1027.31
2016-12-31T11:53:24.584Z,1027.25
2016-12-31T11:54:36.236Z,1027.26
2016-12-31T11:55:47.836Z,1027.21
2016-12-31T11:56:59.436Z,1027.2
2016-12-31T11:58:10.841Z,1027.23
2016-12-31T11:59:22.443Z,1027.17
2016-12-31T12:00:33.891Z,1027.19
2016-12-31T12:01:45.291Z,1027.19
2016-12-31T12:02:56.696Z,1027.19
2016-12-31T12:04:08.096Z,1027.16
2016-12-31T12:05:19.491Z,1027.21
2016-12-31T12:06:30.944Z,1027.18
2016-12-31T12:07:42.550Z,1027.16
2016-12-31T12:08:53.950Z,1027.09
2016-12-31T12:10:05.340Z,1027.11
2016-12-31T12:11:16.940Z,1027.08
2016-12-31T12:12:28.388Z,1026.99
2016-12-31T12:13:39.780Z,1027
2016-12-31T12:14:51.178Z,1026.95
2016-12-31T12:16:02.608Z,1026.92
2016-12-31T12:17:14.213Z,1026.83
2016-12-31T12:18:25.690Z,1026.81
2016-12-31T12:19:37.095Z,1026.75
2016-12-31T12:20:48.497Z,1026.69
2016-12-31T12:21:59.901Z,1026.77
2016-12-31T12:23:11.302Z,1026.76
2016-12-31T12:24:22.755Z,1026.73
2016-12-31T12:25:34.160Z,1026.74
2016-12-31T12:26:45.568Z,1026.73
2016-12-31T12:27:57.175Z,1026.73
2016-12-31T12:29:08.572Z,1026.73
2016-12-31T12:30:20.029Z,1026.71
2016-12-31T12:31:31.428Z,1026.68
2016-12-31T12:32:42.840Z,1026.67
2016-12-31T12:33:54.446Z,1026.72
2016-12-31T12:35:06.053Z,1026.64
2016-12-31T12:36:17.705Z,1026.63
2016-12-31T12:37:29.105Z,1026.65
2016-12-31T12:38:40.509Z,1026.67
2016-12-31T12:39:51.923Z,1026.6
2016-12-31T12:41:03.319Z,1026.58
2016-12-31T12:42:14.973Z,1026.57
2016-12-31T12:43:26.375Z,1026.64
2016-12-31T12:44:37.788Z,1026.53
2016-12-31T12:45:49.194Z,1026.48
2016-12-31T12:47:00.593Z,1026.49
2016-12-31T12:48:12.243Z,1026.47
2016-12-31T12:49:23.640Z,1026.49
2016-12-31T12:50:35.038Z,1026.48
2016-12-31T12:51:46.647Z,1026.47
2016-12-31T12:52:58.086Z,1026.45
2016-12-31T12:54:09.534Z,1026.4
2016-12-31T12:55:20.965Z,1026.41
2016-12-31T12:56:32.365Z,1026.39
2016-12-31T12:57:43.771Z,1026.4
2016-12-31T12:58:55.176Z,1026.34
2016-12-31T13:00:06.630Z,1026.27
2016-12-31T13:01:18.036Z,1026.31
2016-12-31T13:02:29.441Z,1026.27
2016-12-31T13:03:40.839Z,1026.27
2016-12-31T13:04:52.437Z,1026.24
2016-12-31T13:06:03.890Z,1026.24
2016-12-31T13:07:15.288Z,1026.19
2016-12-31T13:08:26.690Z,1026.21
2016-12-31T13:09:38.092Z,1026.17
2016-12-31T13:10:49.696Z,1026.19
2016-12-31T13:12:01.348Z,1026.15
2016-12-31T13:13:12.945Z,1026.15
2016-12-31T13:14:24.543Z,1026.13
2016-12-31T13:15:36.141Z,1026.06
2016-12-31T13:16:47.537Z,1026.07
2016-12-31T13:17:58.986Z,1026.06
2016-12-31T13:19:10.383Z,1026.05
2016-12-31T13:20:21.783Z,1026.04
2016-12-31T13:21:33.397Z,1026.11
2016-12-31T13:22:44.798Z,1026.08
2016-12-31T13:23:56.253Z,1026.04
2016-12-31T13:25:07.655Z,1026.07
2016-12-31T13:26:19.060Z,1026.05
2016-12-31T13:27:30.455Z,1026.11
2016-12-31T13:28:41.863Z,1026.07
2016-12-31T13:29:53.331Z,1026.09
2016-12-31T13:31:04.933Z,1025.96
2016-12-31T13:32:16.336Z,1025.96
2016-12-31T13:33:27.759Z,1025.97
2016-12-31T13:34:39.161Z,1025.96
2016-12-31T13:35:50.613Z,1025.93
2016-12-31T13:37:02.015Z,1025.87
2016-12-31T13:38:13.416Z,1025.87
2016-12-31T13:39:25.020Z,1025.85
2016-12-31T13:40:36.417Z,1025.88
2016-12-31T13:41:47.906Z,1025.88
2016-12-31T13:42:59.307Z,1025.86
2016-12-31T13:44:10.711Z,1025.91
2016-12-31T13:45:22.134Z,1025.9
2016-12-31T13:46:33.525Z,1025.9
2016-12-31T13:47:44.920Z,1025.92
2016-12-31T13:48:56.522Z,1025.89
2016-12-31T13:50:07.951Z,1025.87
2016-12-31T13:51:19.549Z,1025.92
2016-12-31T13:52:30.945Z,1025.89
2016-12-31T13:53:42.604Z,1025.91
2016-12-31T13:54:54.008Z,1025.93
2016-12-31T13:56:05.410Z,1025.87
2016-12-31T13:57:16.804Z,1025.93
2016-12-31T13:58:28.195Z,1025.9
2016-12-31T13:59:39.646Z,1025.88
2016-12-31T14:00:51.047Z,1025.83
2016-12-31T14:02:02.452Z,1025.81
2016-12-31T14:03:13.846Z,1025.79
2016-12-31T14:04:25.250Z,1025.8
2016-12-31T14:05:36.698Z,1025.8
2016-12-31T14:06:48.092Z,1025.78
2016-12-31T14:07:59.498Z,1025.8
2016-12-31T14:09:10.926Z,1025.81
2016-12-31T14:10:22.532Z,1025.73
2016-12-31T14:11:33.985Z,1025.74
2016-12-31T14:12:45.387Z,1025.74
2016-12-31T14:13:56.793Z,1025.72
2016-12-31T14:15:08.206Z,1025.7
2016-12-31T14:16:19.613Z,1025.68
2016-12-31T14:17:31.065Z,1025.66
2016-12-31T14:18:42.467Z,1025.67
2016-12-31T14:19:54.072Z,1025.64
2016-12-31T14:21:05.473Z,1025.63
2016-12-31T14:22:17.276Z,1025.55
2016-12-31T14:23:28.727Z,1025.57
2016-12-31T14:24:40.124Z,1025.55
2016-12-31T14:25:51.536Z,1025.55
2016-12-31T14:27:02.943Z,1025.53